sensor_id;sensor_type;location;lat;lon;timestamp;P1;durP1;ratioP1;P2;durP2;ratioP2
43998;SDS011;51319;52.162;5.302;2023-06-22T00:00:02;5.70;;;4.55;;
43998;SDS011;51319;52.162;5.302;2023-06-22T00:02:34;5.75;;;4.40;;
43998;SDS011;51319;52.162;5.302;2023-06-22T00:05:01;5.30;;;4.50;;
43998;SDS011;51319;52.162;5.302;2023-06-22T00:07:31;5.13;;;3.92;;
43998;SDS011;51319;52.162;5.302;2023-06-22T00:09:58;5.70;;;3.95;;
43998;SDS011;51319;52.162;5.302;2023-06-22T00:12:25;8.80;;;3.60;;
43998;SDS011;51319;52.162;5.302;2023-06-22T00:15:04;3.58;;;3.28;;
43998;SDS011;51319;52.162;5.302;2023-06-22T00:17:31;6.32;;;3.78;;
43998;SDS011;51319;52.162;5.302;2023-06-22T00:19:59;6.53;;;4.15;;
43998;SDS011;51319;52.162;5.302;2023-06-22T00:22:26;5.50;;;3.67;;
43998;SDS011;51319;52.162;5.302;2023-06-22T00:24:56;4.05;;;3.60;;
43998;SDS011;51319;52.162;5.302;2023-06-22T00:27:23;4.68;;;3.92;;
43998;SDS011;51319;52.162;5.302;2023-06-22T00:29:50;5.10;;;4.22;;
43998;SDS011;51319;52.162;5.302;2023-06-22T00:32:18;5.40;;;3.97;;
43998;SDS011;51319;52.162;5.302;2023-06-22T00:34:45;7.90;;;3.97;;
43998;SDS011;51319;52.162;5.302;2023-06-22T00:37:12;4.57;;;4.00;;
43998;SDS011;51319;52.162;5.302;2023-06-22T00:39:39;6.05;;;3.88;;
43998;SDS011;51319;52.162;5.302;2023-06-22T00:42:06;5.22;;;4.22;;
43998;SDS011;51319;52.162;5.302;2023-06-22T00:44:33;4.20;;;3.78;;
43998;SDS011;51319;52.162;5.302;2023-06-22T00:47:01;7.13;;;4.63;;
43998;SDS011;51319;52.162;5.302;2023-06-22T00:49:30;4.85;;;3.88;;
43998;SDS011;51319;52.162;5.302;2023-06-22T00:51:57;6.65;;;4.22;;
43998;SDS011;51319;52.162;5.302;2023-06-22T00:54:24;6.93;;;4.38;;
43998;SDS011;51319;52.162;5.302;2023-06-22T00:56:53;5.65;;;3.72;;
43998;SDS011;51319;52.162;5.302;2023-06-22T00:59:23;5.68;;;4.30;;
43998;SDS011;51319;52.162;5.302;2023-06-22T01:01:52;6.10;;;4.30;;
43998;SDS011;51319;52.162;5.302;2023-06-22T01:04:19;5.63;;;4.47;;
43998;SDS011;51319;52.162;5.302;2023-06-22T01:06:58;6.53;;;4.65;;
43998;SDS011;51319;52.162;5.302;2023-06-22T01:10:05;6.13;;;4.22;;
43998;SDS011;51319;52.162;5.302;2023-06-22T01:12:34;8.50;;;4.65;;
43998;SDS011;51319;52.162;5.302;2023-06-22T01:15:11;6.30;;;3.95;;
43998;SDS011;51319;52.162;5.302;2023-06-22T01:17:43;5.32;;;4.15;;
43998;SDS011;51319;52.162;5.302;2023-06-22T01:20:11;4.65;;;3.95;;
43998;SDS011;51319;52.162;5.302;2023-06-22T01:29:09;14.63;;;5.10;;
43998;SDS011;51319;52.162;5.302;2023-06-22T01:34:08;6.90;;;5.00;;
43998;SDS011;51319;52.162;5.302;2023-06-22T01:36:36;7.93;;;4.70;;
43998;SDS011;51319;52.162;5.302;2023-06-22T01:39:05;7.07;;;5.43;;
43998;SDS011;51319;52.162;5.302;2023-06-22T01:41:34;7.30;;;5.72;;
43998;SDS011;51319;52.162;5.302;2023-06-22T01:44:06;7.30;;;6.47;;
43998;SDS011;51319;52.162;5.302;2023-06-22T01:46:35;10.02;;;6.43;;
43998;SDS011;51319;52.162;5.302;2023-06-22T01:49:03;12.30;;;6.38;;
43998;SDS011;51319;52.162;5.302;2023-06-22T01:51:31;8.85;;;5.95;;
43998;SDS011;51319;52.162;5.302;2023-06-22T01:53:58;9.02;;;6.13;;
43998;SDS011;51319;52.162;5.302;2023-06-22T01:56:25;11.65;;;6.40;;
43998;SDS011;51319;52.162;5.302;2023-06-22T02:01:56;10.23;;;5.82;;
43998;SDS011;51319;52.162;5.302;2023-06-22T02:04:28;6.57;;;5.90;;
43998;SDS011;51319;52.162;5.302;2023-06-22T02:07:07;10.73;;;5.35;;
43998;SDS011;51319;52.162;5.302;2023-06-22T02:09:38;8.15;;;6.30;;
43998;SDS011;51319;52.162;5.302;2023-06-22T02:12:08;12.07;;;7.27;;
43998;SDS011;51319;52.162;5.302;2023-06-22T02:14:39;9.48;;;6.22;;
43998;SDS011;51319;52.162;5.302;2023-06-22T02:17:07;8.82;;;6.00;;
43998;SDS011;51319;52.162;5.302;2023-06-22T02:19:36;8.98;;;6.70;;
43998;SDS011;51319;52.162;5.302;2023-06-22T02:22:03;8.73;;;5.90;;
43998;SDS011;51319;52.162;5.302;2023-06-22T02:24:30;8.52;;;6.55;;
43998;SDS011;51319;52.162;5.302;2023-06-22T02:27:00;10.25;;;6.55;;
43998;SDS011;51319;52.162;5.302;2023-06-22T02:29:30;10.30;;;7.35;;
43998;SDS011;51319;52.162;5.302;2023-06-22T02:31:57;9.95;;;7.22;;
43998;SDS011;51319;52.162;5.302;2023-06-22T02:34:24;10.48;;;7.43;;
43998;SDS011;51319;52.162;5.302;2023-06-22T02:36:51;9.80;;;6.60;;
43998;SDS011;51319;52.162;5.302;2023-06-22T02:39:20;9.85;;;7.43;;
43998;SDS011;51319;52.162;5.302;2023-06-22T02:41:49;10.55;;;6.93;;
43998;SDS011;51319;52.162;5.302;2023-06-22T02:44:17;9.32;;;6.55;;
43998;SDS011;51319;52.162;5.302;2023-06-22T02:46:45;9.38;;;7.32;;
43998;SDS011;51319;52.162;5.302;2023-06-22T02:49:13;10.82;;;6.88;;
43998;SDS011;51319;52.162;5.302;2023-06-22T02:51:41;10.63;;;7.47;;
43998;SDS011;51319;52.162;5.302;2023-06-22T02:54:11;13.25;;;7.55;;
43998;SDS011;51319;52.162;5.302;2023-06-22T02:56:38;11.25;;;7.82;;
43998;SDS011;51319;52.162;5.302;2023-06-22T02:59:07;10.80;;;8.02;;
43998;SDS011;51319;52.162;5.302;2023-06-22T03:01:33;10.55;;;8.52;;
43998;SDS011;51319;52.162;5.302;2023-06-22T03:04:07;10.48;;;8.02;;
43998;SDS011;51319;52.162;5.302;2023-06-22T03:06:35;12.52;;;8.93;;
43998;SDS011;51319;52.162;5.302;2023-06-22T03:09:03;8.82;;;7.30;;
43998;SDS011;51319;52.162;5.302;2023-06-22T03:11:32;9.82;;;7.68;;
43998;SDS011;51319;52.162;5.302;2023-06-22T03:14:01;13.65;;;8.40;;
43998;SDS011;51319;52.162;5.302;2023-06-22T03:16:30;12.32;;;9.43;;
43998;SDS011;51319;52.162;5.302;2023-06-22T03:19:00;12.25;;;8.90;;
43998;SDS011;51319;52.162;5.302;2023-06-22T03:21:28;15.32;;;9.10;;
43998;SDS011;51319;52.162;5.302;2023-06-22T03:23:55;11.25;;;8.98;;
43998;SDS011;51319;52.162;5.302;2023-06-22T03:26:22;11.63;;;8.20;;
43998;SDS011;51319;52.162;5.302;2023-06-22T03:28:55;11.90;;;9.00;;
43998;SDS011;51319;52.162;5.302;2023-06-22T03:31:22;9.52;;;7.97;;
43998;SDS011;51319;52.162;5.302;2023-06-22T03:33:50;10.93;;;7.55;;
43998;SDS011;51319;52.162;5.302;2023-06-22T03:36:18;9.52;;;8.18;;
43998;SDS011;51319;52.162;5.302;2023-06-22T03:38:48;13.18;;;8.40;;
43998;SDS011;51319;52.162;5.302;2023-06-22T03:41:16;10.07;;;8.77;;
43998;SDS011;51319;52.162;5.302;2023-06-22T03:43:43;11.88;;;8.02;;
43998;SDS011;51319;52.162;5.302;2023-06-22T03:46:11;11.25;;;8.90;;
43998;SDS011;51319;52.162;5.302;2023-06-22T03:48:38;15.18;;;9.18;;
43998;SDS011;51319;52.162;5.302;2023-06-22T03:51:04;13.52;;;8.52;;
43998;SDS011;51319;52.162;5.302;2023-06-22T03:53:32;11.82;;;8.63;;
43998;SDS011;51319;52.162;5.302;2023-06-22T03:55:59;9.77;;;8.60;;
43998;SDS011;51319;52.162;5.302;2023-06-22T03:58:27;12.38;;;8.77;;
43998;SDS011;51319;52.162;5.302;2023-06-22T04:00:59;8.93;;;7.75;;
43998;SDS011;51319;52.162;5.302;2023-06-22T04:03:26;8.52;;;7.22;;
43998;SDS011;51319;52.162;5.302;2023-06-22T04:05:53;11.10;;;6.78;;
43998;SDS011;51319;52.162;5.302;2023-06-22T04:08:20;11.48;;;7.75;;
43998;SDS011;51319;52.162;5.302;2023-06-22T04:10:47;8.65;;;7.15;;
43998;SDS011;51319;52.162;5.302;2023-06-22T04:13:14;10.32;;;8.27;;
43998;SDS011;51319;52.162;5.302;2023-06-22T04:15:41;13.45;;;8.07;;
43998;SDS011;51319;52.162;5.302;2023-06-22T04:18:08;10.68;;;8.38;;
43998;SDS011;51319;52.162;5.302;2023-06-22T04:20:35;12.30;;;7.35;;
43998;SDS011;51319;52.162;5.302;2023-06-22T04:23:04;11.20;;;7.60;;
43998;SDS011;51319;52.162;5.302;2023-06-22T04:25:31;12.07;;;8.88;;
43998;SDS011;51319;52.162;5.302;2023-06-22T04:27:58;15.07;;;8.93;;
43998;SDS011;51319;52.162;5.302;2023-06-22T04:33:10;10.60;;;8.55;;
43998;SDS011;51319;52.162;5.302;2023-06-22T04:35:37;11.15;;;8.60;;
43998;SDS011;51319;52.162;5.302;2023-06-22T04:38:07;20.08;;;12.98;;
43998;SDS011;51319;52.162;5.302;2023-06-22T04:45:55;19.15;;;11.05;;
43998;SDS011;51319;52.162;5.302;2023-06-22T04:48:29;15.82;;;10.38;;
43998;SDS011;51319;52.162;5.302;2023-06-22T04:51:01;14.88;;;10.18;;
43998;SDS011;51319;52.162;5.302;2023-06-22T04:53:31;19.23;;;13.60;;
43998;SDS011;51319;52.162;5.302;2023-06-22T04:55:58;25.23;;;19.17;;
43998;SDS011;51319;52.162;5.302;2023-06-22T04:58:25;26.65;;;19.70;;
43998;SDS011;51319;52.162;5.302;2023-06-22T05:08:46;32.33;;;21.27;;
43998;SDS011;51319;52.162;5.302;2023-06-22T05:19:29;35.85;;;26.33;;
43998;SDS011;51319;52.162;5.302;2023-06-22T05:22:00;45.25;;;27.30;;
43998;SDS011;51319;52.162;5.302;2023-06-22T05:24:27;37.22;;;26.85;;
43998;SDS011;51319;52.162;5.302;2023-06-22T05:26:54;39.92;;;28.52;;
43998;SDS011;51319;52.162;5.302;2023-06-22T05:29:21;39.97;;;25.48;;
43998;SDS011;51319;52.162;5.302;2023-06-22T05:31:49;37.92;;;27.65;;
43998;SDS011;51319;52.162;5.302;2023-06-22T05:34:16;48.80;;;30.20;;
43998;SDS011;51319;52.162;5.302;2023-06-22T05:36:43;43.13;;;28.85;;
43998;SDS011;51319;52.162;5.302;2023-06-22T05:39:11;40.88;;;27.17;;
43998;SDS011;51319;52.162;5.302;2023-06-22T05:41:39;40.97;;;27.90;;
43998;SDS011;51319;52.162;5.302;2023-06-22T05:44:07;41.67;;;28.48;;
43998;SDS011;51319;52.162;5.302;2023-06-22T05:46:34;37.30;;;27.02;;
43998;SDS011;51319;52.162;5.302;2023-06-22T05:49:01;40.85;;;29.73;;
43998;SDS011;51319;52.162;5.302;2023-06-22T05:51:28;41.33;;;29.42;;
43998;SDS011;51319;52.162;5.302;2023-06-22T05:53:55;42.53;;;31.45;;
43998;SDS011;51319;52.162;5.302;2023-06-22T05:56:22;44.20;;;33.35;;
43998;SDS011;51319;52.162;5.302;2023-06-22T05:58:49;41.17;;;30.05;;
43998;SDS011;51319;52.162;5.302;2023-06-22T06:04:05;45.85;;;31.65;;
43998;SDS011;51319;52.162;5.302;2023-06-22T06:06:34;45.75;;;31.38;;
43998;SDS011;51319;52.162;5.302;2023-06-22T06:09:04;52.00;;;31.58;;
43998;SDS011;51319;52.162;5.302;2023-06-22T06:11:31;42.97;;;31.88;;
43998;SDS011;51319;52.162;5.302;2023-06-22T06:13:58;47.15;;;30.90;;
43998;SDS011;51319;52.162;5.302;2023-06-22T06:16:25;39.97;;;31.50;;
43998;SDS011;51319;52.162;5.302;2023-06-22T06:18:54;40.80;;;29.17;;
43998;SDS011;51319;52.162;5.302;2023-06-22T06:21:22;38.38;;;28.75;;
43998;SDS011;51319;52.162;5.302;2023-06-22T06:23:49;35.15;;;27.75;;
43998;SDS011;51319;52.162;5.302;2023-06-22T06:26:16;36.33;;;29.45;;
43998;SDS011;51319;52.162;5.302;2023-06-22T06:28:44;39.78;;;28.92;;
43998;SDS011;51319;52.162;5.302;2023-06-22T06:31:12;40.38;;;29.33;;
43998;SDS011;51319;52.162;5.302;2023-06-22T06:33:43;38.08;;;29.67;;
43998;SDS011;51319;52.162;5.302;2023-06-22T06:36:10;36.70;;;27.50;;
43998;SDS011;51319;52.162;5.302;2023-06-22T06:38:37;36.63;;;26.30;;
43998;SDS011;51319;52.162;5.302;2023-06-22T06:41:04;37.65;;;26.17;;
43998;SDS011;51319;52.162;5.302;2023-06-22T06:43:31;34.05;;;25.48;;
43998;SDS011;51319;52.162;5.302;2023-06-22T06:45:58;30.42;;;25.23;;
43998;SDS011;51319;52.162;5.302;2023-06-22T06:48:25;30.17;;;23.48;;
43998;SDS011;51319;52.162;5.302;2023-06-22T06:53:32;32.72;;;25.42;;
43998;SDS011;51319;52.162;5.302;2023-06-22T06:56:02;30.50;;;24.13;;
43998;SDS011;51319;52.162;5.302;2023-06-22T06:58:30;33.63;;;24.50;;
43998;SDS011;51319;52.162;5.302;2023-06-22T07:00:59;28.40;;;23.75;;
43998;SDS011;51319;52.162;5.302;2023-06-22T07:03:26;26.48;;;21.73;;
43998;SDS011;51319;52.162;5.302;2023-06-22T07:08:39;26.90;;;22.30;;
43998;SDS011;51319;52.162;5.302;2023-06-22T07:11:06;25.20;;;20.88;;
43998;SDS011;51319;52.162;5.302;2023-06-22T07:13:33;26.65;;;20.67;;
43998;SDS011;51319;52.162;5.302;2023-06-22T07:18:33;23.63;;;19.65;;
43998;SDS011;51319;52.162;5.302;2023-06-22T07:29:07;22.65;;;17.75;;
43998;SDS011;51319;52.162;5.302;2023-06-22T07:31:34;23.05;;;17.77;;
43998;SDS011;51319;52.162;5.302;2023-06-22T07:34:04;23.85;;;19.10;;
43998;SDS011;51319;52.162;5.302;2023-06-22T07:36:31;26.35;;;18.58;;
43998;SDS011;51319;52.162;5.302;2023-06-22T07:39:01;21.52;;;17.73;;
43998;SDS011;51319;52.162;5.302;2023-06-22T07:41:30;23.42;;;18.25;;
43998;SDS011;51319;52.162;5.302;2023-06-22T07:43:57;22.33;;;17.50;;
43998;SDS011;51319;52.162;5.302;2023-06-22T07:46:24;21.40;;;17.40;;
43998;SDS011;51319;52.162;5.302;2023-06-22T07:48:51;18.83;;;15.80;;
43998;SDS011;51319;52.162;5.302;2023-06-22T07:51:22;19.33;;;16.80;;
43998;SDS011;51319;52.162;5.302;2023-06-22T07:53:51;20.38;;;16.67;;
43998;SDS011;51319;52.162;5.302;2023-06-22T07:56:18;19.83;;;16.05;;
43998;SDS011;51319;52.162;5.302;2023-06-22T07:58:46;19.63;;;15.18;;
43998;SDS011;51319;52.162;5.302;2023-06-22T08:01:16;17.17;;;11.88;;
43998;SDS011;51319;52.162;5.302;2023-06-22T08:03:46;15.52;;;11.27;;
43998;SDS011;51319;52.162;5.302;2023-06-22T08:06:16;16.25;;;11.50;;
43998;SDS011;51319;52.162;5.302;2023-06-22T08:08:43;12.98;;;10.45;;
43998;SDS011;51319;52.162;5.302;2023-06-22T08:11:14;13.48;;;9.57;;
43998;SDS011;51319;52.162;5.302;2023-06-22T08:13:41;13.13;;;9.70;;
43998;SDS011;51319;52.162;5.302;2023-06-22T08:16:08;12.07;;;8.77;;
43998;SDS011;51319;52.162;5.302;2023-06-22T08:18:35;15.07;;;7.80;;
43998;SDS011;51319;52.162;5.302;2023-06-22T08:21:02;10.75;;;8.73;;
43998;SDS011;51319;52.162;5.302;2023-06-22T08:23:31;11.57;;;7.75;;
43998;SDS011;51319;52.162;5.302;2023-06-22T08:26:00;11.73;;;7.40;;
43998;SDS011;51319;52.162;5.302;2023-06-22T08:28:27;10.93;;;6.55;;
43998;SDS011;51319;52.162;5.302;2023-06-22T08:30:54;10.60;;;7.25;;
43998;SDS011;51319;52.162;5.302;2023-06-22T08:33:21;11.00;;;7.00;;
43998;SDS011;51319;52.162;5.302;2023-06-22T08:35:55;7.55;;;5.90;;
43998;SDS011;51319;52.162;5.302;2023-06-22T08:38:22;10.43;;;7.13;;
43998;SDS011;51319;52.162;5.302;2023-06-22T08:40:49;10.65;;;6.90;;
43998;SDS011;51319;52.162;5.302;2023-06-22T08:43:16;8.70;;;6.00;;
43998;SDS011;51319;52.162;5.302;2023-06-22T08:45:43;6.38;;;5.65;;
43998;SDS011;51319;52.162;5.302;2023-06-22T08:48:10;7.50;;;4.90;;
43998;SDS011;51319;52.162;5.302;2023-06-22T08:50:37;9.27;;;5.13;;
43998;SDS011;51319;52.162;5.302;2023-06-22T08:53:07;5.40;;;4.60;;
43998;SDS011;51319;52.162;5.302;2023-06-22T08:55:33;10.77;;;4.53;;
43998;SDS011;51319;52.162;5.302;2023-06-22T08:58:02;6.40;;;5.53;;
43998;SDS011;51319;52.162;5.302;2023-06-22T09:00:30;7.97;;;5.63;;
43998;SDS011;51319;52.162;5.302;2023-06-22T09:03:01;7.38;;;5.20;;
43998;SDS011;51319;52.162;5.302;2023-06-22T09:05:28;7.32;;;4.38;;
43998;SDS011;51319;52.162;5.302;2023-06-22T09:07:56;8.93;;;5.45;;
43998;SDS011;51319;52.162;5.302;2023-06-22T09:10:26;8.32;;;5.35;;
43998;SDS011;51319;52.162;5.302;2023-06-22T09:12:53;7.28;;;5.28;;
43998;SDS011;51319;52.162;5.302;2023-06-22T09:15:26;6.03;;;4.45;;
43998;SDS011;51319;52.162;5.302;2023-06-22T09:17:54;5.82;;;4.38;;
43998;SDS011;51319;52.162;5.302;2023-06-22T09:20:22;7.43;;;4.93;;
43998;SDS011;51319;52.162;5.302;2023-06-22T09:22:49;6.93;;;5.25;;
43998;SDS011;51319;52.162;5.302;2023-06-22T09:25:16;5.80;;;4.70;;
43998;SDS011;51319;52.162;5.302;2023-06-22T09:27:43;6.93;;;4.38;;
43998;SDS011;51319;52.162;5.302;2023-06-22T09:30:10;5.97;;;4.38;;
43998;SDS011;51319;52.162;5.302;2023-06-22T09:32:38;4.88;;;3.80;;
43998;SDS011;51319;52.162;5.302;2023-06-22T09:35:05;6.20;;;4.38;;
43998;SDS011;51319;52.162;5.302;2023-06-22T09:37:33;9.68;;;4.40;;
43998;SDS011;51319;52.162;5.302;2023-06-22T09:40:00;8.85;;;4.85;;
43998;SDS011;51319;52.162;5.302;2023-06-22T09:42:27;7.20;;;4.70;;
43998;SDS011;51319;52.162;5.302;2023-06-22T09:44:54;7.75;;;4.53;;
43998;SDS011;51319;52.162;5.302;2023-06-22T09:47:28;6.97;;;4.28;;
43998;SDS011;51319;52.162;5.302;2023-06-22T09:49:57;4.85;;;3.95;;
43998;SDS011;51319;52.162;5.302;2023-06-22T09:52:26;7.65;;;4.50;;
43998;SDS011;51319;52.162;5.302;2023-06-22T09:55:12;7.45;;;4.78;;
43998;SDS011;51319;52.162;5.302;2023-06-22T09:57:39;9.02;;;4.30;;
43998;SDS011;51319;52.162;5.302;2023-06-22T10:00:07;7.05;;;5.07;;
43998;SDS011;51319;52.162;5.302;2023-06-22T10:02:35;9.93;;;5.30;;
43998;SDS011;51319;52.162;5.302;2023-06-22T10:05:03;8.32;;;6.00;;
43998;SDS011;51319;52.162;5.302;2023-06-22T10:07:31;10.98;;;5.75;;
43998;SDS011;51319;52.162;5.302;2023-06-22T10:10:01;6.80;;;5.17;;
43998;SDS011;51319;52.162;5.302;2023-06-22T10:12:28;11.00;;;5.78;;
43998;SDS011;51319;52.162;5.302;2023-06-22T10:14:55;8.70;;;5.85;;
43998;SDS011;51319;52.162;5.302;2023-06-22T10:17:22;7.90;;;6.07;;
43998;SDS011;51319;52.162;5.302;2023-06-22T10:19:50;7.80;;;5.65;;
43998;SDS011;51319;52.162;5.302;2023-06-22T10:22:17;8.23;;;5.60;;
43998;SDS011;51319;52.162;5.302;2023-06-22T10:24:44;13.27;;;6.47;;
43998;SDS011;51319;52.162;5.302;2023-06-22T10:27:12;8.60;;;5.93;;
43998;SDS011;51319;52.162;5.302;2023-06-22T10:29:39;9.13;;;7.03;;
43998;SDS011;51319;52.162;5.302;2023-06-22T10:32:07;9.73;;;6.95;;
43998;SDS011;51319;52.162;5.302;2023-06-22T10:34:34;8.20;;;6.80;;
43998;SDS011;51319;52.162;5.302;2023-06-22T10:37:01;9.82;;;7.00;;
43998;SDS011;51319;52.162;5.302;2023-06-22T10:39:29;12.65;;;7.53;;
43998;SDS011;51319;52.162;5.302;2023-06-22T10:41:57;10.07;;;7.38;;
43998;SDS011;51319;52.162;5.302;2023-06-22T10:44:24;8.18;;;7.15;;
43998;SDS011;51319;52.162;5.302;2023-06-22T10:46:51;11.88;;;7.97;;
43998;SDS011;51319;52.162;5.302;2023-06-22T10:49:18;9.70;;;7.07;;
43998;SDS011;51319;52.162;5.302;2023-06-22T10:51:45;11.68;;;8.50;;
43998;SDS011;51319;52.162;5.302;2023-06-22T10:54:13;16.25;;;7.53;;
43998;SDS011;51319;52.162;5.302;2023-06-22T10:56:40;10.35;;;8.38;;
43998;SDS011;51319;52.162;5.302;2023-06-22T10:59:07;16.77;;;9.27;;
43998;SDS011;51319;52.162;5.302;2023-06-22T11:01:34;13.65;;;7.93;;
43998;SDS011;51319;52.162;5.302;2023-06-22T11:04:02;11.95;;;8.73;;
43998;SDS011;51319;52.162;5.302;2023-06-22T11:06:30;14.68;;;7.68;;
43998;SDS011;51319;52.162;5.302;2023-06-22T11:08:57;11.95;;;7.72;;
43998;SDS011;51319;52.162;5.302;2023-06-22T11:11:37;8.18;;;7.32;;
43998;SDS011;51319;52.162;5.302;2023-06-22T11:14:04;10.82;;;6.95;;
43998;SDS011;51319;52.162;5.302;2023-06-22T11:16:31;13.63;;;7.70;;
43998;SDS011;51319;52.162;5.302;2023-06-22T11:18:58;9.80;;;7.10;;
43998;SDS011;51319;52.162;5.302;2023-06-22T11:21:25;12.85;;;7.22;;
43998;SDS011;51319;52.162;5.302;2023-06-22T11:23:52;10.07;;;7.18;;
43998;SDS011;51319;52.162;5.302;2023-06-22T11:26:19;8.57;;;7.05;;
43998;SDS011;51319;52.162;5.302;2023-06-22T11:31:23;11.52;;;7.32;;
43998;SDS011;51319;52.162;5.302;2023-06-22T11:33:52;10.93;;;7.28;;
43998;SDS011;51319;52.162;5.302;2023-06-22T11:36:20;9.70;;;7.05;;
43998;SDS011;51319;52.162;5.302;2023-06-22T11:38:50;11.18;;;7.03;;
43998;SDS011;51319;52.162;5.302;2023-06-22T11:41:19;10.68;;;6.85;;
43998;SDS011;51319;52.162;5.302;2023-06-22T11:43:46;9.13;;;6.95;;
43998;SDS011;51319;52.162;5.302;2023-06-22T11:46:15;10.30;;;6.90;;
43998;SDS011;51319;52.162;5.302;2023-06-22T11:48:42;10.18;;;7.65;;
43998;SDS011;51319;52.162;5.302;2023-06-22T11:51:09;11.02;;;7.22;;
43998;SDS011;51319;52.162;5.302;2023-06-22T11:53:36;10.55;;;8.32;;
43998;SDS011;51319;52.162;5.302;2023-06-22T11:56:03;11.82;;;8.73;;
43998;SDS011;51319;52.162;5.302;2023-06-22T11:58:30;16.15;;;9.35;;
43998;SDS011;51319;52.162;5.302;2023-06-22T12:00:57;8.48;;;7.05;;
43998;SDS011;51319;52.162;5.302;2023-06-22T12:03:24;11.43;;;7.57;;
43998;SDS011;51319;52.162;5.302;2023-06-22T12:05:51;11.68;;;7.32;;
43998;SDS011;51319;52.162;5.302;2023-06-22T12:08:18;9.73;;;7.53;;
43998;SDS011;51319;52.162;5.302;2023-06-22T12:10:45;12.25;;;7.50;;
43998;SDS011;51319;52.162;5.302;2023-06-22T12:13:12;11.95;;;7.00;;
43998;SDS011;51319;52.162;5.302;2023-06-22T12:15:39;9.93;;;7.20;;
43998;SDS011;51319;52.162;5.302;2023-06-22T12:18:06;9.27;;;7.22;;
43998;SDS011;51319;52.162;5.302;2023-06-22T12:20:34;11.13;;;6.75;;
43998;SDS011;51319;52.162;5.302;2023-06-22T12:23:04;8.73;;;6.47;;
43998;SDS011;51319;52.162;5.302;2023-06-22T12:25:34;9.80;;;7.18;;
43998;SDS011;51319;52.162;5.302;2023-06-22T12:28:01;9.38;;;6.75;;
43998;SDS011;51319;52.162;5.302;2023-06-22T12:30:34;10.13;;;7.15;;
43998;SDS011;51319;52.162;5.302;2023-06-22T12:33:02;7.35;;;6.25;;
43998;SDS011;51319;52.162;5.302;2023-06-22T12:35:34;8.55;;;6.75;;
43998;SDS011;51319;52.162;5.302;2023-06-22T12:45:56;20.80;;;10.23;;
43998;SDS011;51319;52.162;5.302;2023-06-22T12:48:25;15.82;;;9.40;;
43998;SDS011;51319;52.162;5.302;2023-06-22T12:59:10;14.98;;;10.38;;
43998;SDS011;51319;52.162;5.302;2023-06-22T13:01:37;17.38;;;10.40;;
43998;SDS011;51319;52.162;5.302;2023-06-22T13:04:05;15.52;;;10.52;;
43998;SDS011;51319;52.162;5.302;2023-06-22T13:06:32;11.82;;;9.90;;
43998;SDS011;51319;52.162;5.302;2023-06-22T13:08:59;14.45;;;10.50;;
43998;SDS011;51319;52.162;5.302;2023-06-22T13:11:29;18.88;;;10.10;;
43998;SDS011;51319;52.162;5.302;2023-06-22T13:13:55;12.15;;;10.32;;
43998;SDS011;51319;52.162;5.302;2023-06-22T13:16:22;17.60;;;11.20;;
43998;SDS011;51319;52.162;5.302;2023-06-22T13:18:49;12.95;;;11.05;;
43998;SDS011;51319;52.162;5.302;2023-06-22T13:21:16;14.35;;;9.75;;
43998;SDS011;51319;52.162;5.302;2023-06-22T13:23:44;12.70;;;11.10;;
43998;SDS011;51319;52.162;5.302;2023-06-22T13:26:11;11.88;;;10.63;;
43998;SDS011;51319;52.162;5.302;2023-06-22T13:28:38;18.15;;;11.90;;
43998;SDS011;51319;52.162;5.302;2023-06-22T13:31:05;16.52;;;11.23;;
43998;SDS011;51319;52.162;5.302;2023-06-22T13:33:34;23.27;;;11.85;;
43998;SDS011;51319;52.162;5.302;2023-06-22T13:36:01;27.48;;;11.50;;
43998;SDS011;51319;52.162;5.302;2023-06-22T13:38:29;18.60;;;11.93;;
43998;SDS011;51319;52.162;5.302;2023-06-22T13:40:58;19.95;;;11.20;;
43998;SDS011;51319;52.162;5.302;2023-06-22T13:43:26;30.95;;;12.52;;
43998;SDS011;51319;52.162;5.302;2023-06-22T13:45:53;13.80;;;11.20;;
43998;SDS011;51319;52.162;5.302;2023-06-22T13:48:20;17.23;;;11.63;;
43998;SDS011;51319;52.162;5.302;2023-06-22T13:50:49;22.45;;;11.88;;
43998;SDS011;51319;52.162;5.302;2023-06-22T13:53:16;13.65;;;12.02;;
43998;SDS011;51319;52.162;5.302;2023-06-22T13:55:43;13.95;;;10.93;;
43998;SDS011;51319;52.162;5.302;2023-06-22T13:58:10;16.48;;;10.82;;
43998;SDS011;51319;52.162;5.302;2023-06-22T14:00:37;12.82;;;11.18;;
43998;SDS011;51319;52.162;5.302;2023-06-22T14:03:04;13.38;;;11.73;;
43998;SDS011;51319;52.162;5.302;2023-06-22T14:05:31;15.65;;;12.43;;
43998;SDS011;51319;52.162;5.302;2023-06-22T14:08:01;13.60;;;12.18;;
43998;SDS011;51319;52.162;5.302;2023-06-22T14:10:45;13.63;;;11.13;;
43998;SDS011;51319;52.162;5.302;2023-06-22T14:13:12;16.58;;;11.80;;
43998;SDS011;51319;52.162;5.302;2023-06-22T14:15:41;19.33;;;12.55;;
43998;SDS011;51319;52.162;5.302;2023-06-22T14:18:09;14.27;;;11.55;;
43998;SDS011;51319;52.162;5.302;2023-06-22T14:20:37;15.65;;;12.05;;
43998;SDS011;51319;52.162;5.302;2023-06-22T14:23:04;17.35;;;12.45;;
43998;SDS011;51319;52.162;5.302;2023-06-22T14:25:31;16.58;;;12.05;;
43998;SDS011;51319;52.162;5.302;2023-06-22T14:27:58;16.10;;;12.25;;
43998;SDS011;51319;52.162;5.302;2023-06-22T14:30:25;13.27;;;11.65;;
43998;SDS011;51319;52.162;5.302;2023-06-22T14:32:53;18.55;;;12.52;;
43998;SDS011;51319;52.162;5.302;2023-06-22T14:35:20;16.17;;;11.43;;
43998;SDS011;51319;52.162;5.302;2023-06-22T14:37:47;13.88;;;11.32;;
43998;SDS011;51319;52.162;5.302;2023-06-22T14:40:16;12.63;;;11.27;;
43998;SDS011;51319;52.162;5.302;2023-06-22T14:42:43;16.00;;;11.25;;
43998;SDS011;51319;52.162;5.302;2023-06-22T14:45:10;15.70;;;11.13;;
43998;SDS011;51319;52.162;5.302;2023-06-22T14:47:38;14.80;;;10.57;;
43998;SDS011;51319;52.162;5.302;2023-06-22T14:50:06;13.90;;;11.20;;
43998;SDS011;51319;52.162;5.302;2023-06-22T14:52:33;14.45;;;11.05;;
43998;SDS011;51319;52.162;5.302;2023-06-22T14:55:01;15.52;;;10.85;;
43998;SDS011;51319;52.162;5.302;2023-06-22T14:57:30;13.95;;;10.98;;
43998;SDS011;51319;52.162;5.302;2023-06-22T14:59:57;14.38;;;12.23;;
43998;SDS011;51319;52.162;5.302;2023-06-22T15:02:25;13.63;;;11.65;;
43998;SDS011;51319;52.162;5.302;2023-06-22T15:04:52;13.48;;;11.85;;
43998;SDS011;51319;52.162;5.302;2023-06-22T15:07:20;14.80;;;10.15;;
43998;SDS011;51319;52.162;5.302;2023-06-22T15:09:47;13.10;;;10.70;;
43998;SDS011;51319;52.162;5.302;2023-06-22T15:12:15;15.25;;;10.13;;
43998;SDS011;51319;52.162;5.302;2023-06-22T15:14:42;15.02;;;10.80;;
43998;SDS011;51319;52.162;5.302;2023-06-22T15:17:10;16.35;;;11.40;;
43998;SDS011;51319;52.162;5.302;2023-06-22T15:19:40;14.98;;;11.65;;
43998;SDS011;51319;52.162;5.302;2023-06-22T15:22:08;13.25;;;11.55;;
43998;SDS011;51319;52.162;5.302;2023-06-22T15:24:35;15.85;;;12.13;;
43998;SDS011;51319;52.162;5.302;2023-06-22T15:27:02;15.52;;;11.73;;
43998;SDS011;51319;52.162;5.302;2023-06-22T15:29:29;16.70;;;11.40;;
43998;SDS011;51319;52.162;5.302;2023-06-22T15:32:00;13.60;;;11.95;;
43998;SDS011;51319;52.162;5.302;2023-06-22T15:34:28;14.77;;;12.32;;
43998;SDS011;51319;52.162;5.302;2023-06-22T15:36:55;14.68;;;11.82;;
43998;SDS011;51319;52.162;5.302;2023-06-22T15:39:22;15.73;;;12.10;;
43998;SDS011;51319;52.162;5.302;2023-06-22T15:41:53;18.45;;;12.02;;
43998;SDS011;51319;52.162;5.302;2023-06-22T15:44:21;13.18;;;10.90;;
43998;SDS011;51319;52.162;5.302;2023-06-22T15:46:48;15.05;;;11.90;;
43998;SDS011;51319;52.162;5.302;2023-06-22T15:49:16;14.10;;;11.70;;
43998;SDS011;51319;52.162;5.302;2023-06-22T15:51:44;14.20;;;12.38;;